Time;durP1;ratioP1;P1;durP2;ratioP2;P2;SDS_P1;SDS_P2;PMS_P1;PMS_P2;Temp;Humidity;BMP_temperature;BMP_pressure;BME280_temperature;BME280_humidity;BME280_pressure;Samples;Min_cycle;Max_cycle;Signal;HPM_P1;HPM_P2
2022/02/07 00:27:18;;;;;;;114.85;103.07;;;5.10;99.90;;;;;;4889261;23;20242;-90
2022/02/07 00:33:26;;;;;;;;;;;;;;;;;;;;;
2022/02/07 00:36:34;;;;;;;;;;;;;;;;;;;;;
2022/02/07 00:40:14;;;;;;;83.38;48.65;;;4.50;99.90;;;;;;4883439;29;20174;-90
2022/02/07 00:49:01;;;;;;;239.80;223.32;;;4.50;99.90;;;;;;4855288;29;20175;-91
2022/02/07 00:51:54;;;;;;;239.48;222.50;;;4.50;99.90;;;;;;4879557;29;20265;-90
2022/02/07 00:54:26;;;;;;;181.68;167.57;;;4.50;99.90;;;;;;4874200;29;20186;-89
2022/02/07 00:57:19;;;;;;;155.15;141.93;;;4.40;99.90;;;;;;4881494;29;20179;-90
2022/02/07 00:59:58;;;;;;;105.90;94.45;;;4.40;99.90;;;;;;4881376;29;20238;-90
2022/02/07 01:02:40;;;;;;;202.13;186.27;;;4.30;99.90;;;;;;4882666;29;20250;-90
2022/02/07 01:05:16;;;;;;;191.43;176.65;;;4.30;99.90;;;;;;4881011;29;20228;-90
2022/02/07 01:08:05;;;;;;;96.38;85.88;;;4.30;99.90;;;;;;4882177;29;20175;-90
2022/02/07 01:17:25;;;;;;;;;;;;;;;;;;;;;
2022/02/07 01:56:29;;;;;;;83.53;47.42;;;4.30;99.90;;;;;;4933311;23;20233;-88
2022/02/07 01:59:37;;;;;;;93.65;71.57;;;4.30;99.90;;;;;;4880371;29;20179;-88
2022/02/07 02:08:59;;;;;;;120.63;106.10;;;4.30;99.90;;;;;;4871664;29;20548;-88
2022/02/07 02:11:49;;;;;;;113.47;95.93;;;4.30;99.90;;;;;;4881451;29;20178;-88
2022/02/07 02:37:15;;;;;;;123.05;75.70;;;4.40;99.90;;;;;;4872164;29;20151;-87
2022/02/07 02:45:39;;;;;;;108.70;96.75;;;4.30;99.90;;;;;;4854172;29;20251;-88
2022/02/07 02:48:22;;;;;;;100.00;87.78;;;4.30;99.90;;;;;;4862444;29;20706;-88
2022/02/07 02:51:07;;;;;;;86.70;54.50;;;4.20;99.90;;;;;;4862579;29;20179;-89
2022/02/07 02:53:34;;;;;;;212.63;196.13;;;4.20;99.90;;;;;;4864161;29;20196;-88
2022/02/07 02:56:50;;;;;;;122.35;110.30;;;4.20;99.90;;;;;;4862078;29;20196;-87
2022/02/07 02:59:25;;;;;;;130.48;117.68;;;4.10;99.90;;;;;;4790767;29;20196;-88
2022/02/07 03:01:56;;;;;;;93.43;68.97;;;4.10;99.90;;;;;;4806161;29;20253;-88
2022/02/07 03:04:32;;;;;;;158.50;145.10;;;4.10;99.90;;;;;;4864680;29;20282;-88
2022/02/07 03:07:23;;;;;;;85.45;53.97;;;4.10;99.90;;;;;;4861847;29;20171;-88
2022/02/07 03:19:02;;;;;;;82.60;47.08;;;4.00;99.90;;;;;;4863286;29;20236;-88
2022/02/07 03:21:51;;;;;;;118.35;106.20;;;4.00;99.90;;;;;;4861006;29;20179;-88
2022/02/07 03:25:02;;;;;;;86.07;55.47;;;4.00;99.90;;;;;;4862050;29;20274;-88
2022/02/07 03:27:54;;;;;;;90.05;57.60;;;3.90;99.90;;;;;;4849672;29;20190;-88
2022/02/07 03:30:32;;;;;;;89.28;55.90;;;3.90;99.90;;;;;;4862360;29;20592;-88
2022/02/07 03:33:57;;;;;;;84.75;54.78;;;3.90;99.90;;;;;;4862866;29;20234;-88
2022/02/07 03:36:29;;;;;;;142.70;127.95;;;3.90;99.90;;;;;;4858197;29;20568;-87
2022/02/07 03:39:18;;;;;;;86.45;47.35;;;3.90;99.90;;;;;;4860911;29;20187;-88
2022/02/07 03:41:44;;;;;;;114.57;102.53;;;3.90;99.90;;;;;;4861158;29;20184;-88
2022/02/07 03:44:16;;;;;;;107.13;95.93;;;3.80;99.90;;;;;;4862456;29;20201;-88
2022/02/07 03:46:47;;;;;;;88.47;66.07;;;3.80;99.90;;;;;;4861872;29;20948;-88
2022/02/07 03:49:16;;;;;;;85.20;56.65;;;3.90;99.90;;;;;;4861646;29;20178;-88
2022/02/07 03:52:34;;;;;;;;;;;;;;;;;;;;;
2022/02/07 03:55:38;;;;;;;88.68;44.15;;;3.90;99.90;;;;;;4861519;29;20195;-88
2022/02/07 03:58:42;;;;;;;79.55;39.80;;;3.90;99.90;;;;;;4855474;29;20183;-88
2022/02/07 04:01:19;;;;;;;93.45;66.57;;;3.90;99.90;;;;;;4807286;29;20212;-88
2022/02/07 04:04:27;;;;;;;;;;;;;;;;;;;;;
2022/02/07 04:07:09;;;;;;;76.93;33.78;;;3.80;99.90;;;;;;4872542;23;20246;-88
2022/02/07 04:10:09;;;;;;;81.50;41.13;;;3.80;99.90;;;;;;4861674;29;20179;-88
2022/02/07 04:13:27;;;;;;;166.50;152.85;;;3.70;99.90;;;;;;4858864;29;20210;-88
2022/02/07 04:16:09;;;;;;;83.80;47.30;;;3.70;99.90;;;;;;4822995;29;20264;-88
2022/02/07 04:19:04;;;;;;;78.30;35.40;;;3.70;99.90;;;;;;4818396;29;20200;-88
2022/02/07 04:21:34;;;;;;;91.65;49.22;;;3.80;99.90;;;;;;4843019;29;20179;-88
2022/02/07 04:24:37;;;;;;;103.63;85.05;;;3.80;99.90;;;;;;4840866;29;20207;-88
2022/02/07 04:28:00;;;;;;;85.82;48.55;;;3.80;99.90;;;;;;4842916;29;20160;-88
2022/02/07 04:30:46;;;;;;;81.13;46.60;;;3.70;99.90;;;;;;4843032;29;20279;-88
2022/02/07 04:33:16;;;;;;;85.75;53.05;;;3.70;99.90;;;;;;4841751;29;20183;-88
2022/02/07 04:35:55;;;;;;;144.75;132.35;;;3.70;99.90;;;;;;4840418;29;20200;-88
2022/02/07 04:38:33;;;;;;;93.13;71.13;;;3.70;99.90;;;;;;4842070;29;20175;-88
2022/02/07 04:41:09;;;;;;;84.15;48.75;;;3.70;99.90;;;;;;4841418;29;20184;-88
2022/02/07 04:44:08;;;;;;;87.35;44.85;;;3.70;99.90;;;;;;4841190;29;20207;-88
2022/02/07 04:59:42;;;;;;;85.93;46.03;;;3.70;99.90;;;;;;4846049;29;20675;-88
2022/02/07 05:02:58;;;;;;;82.35;43.97;;;3.70;99.90;;;;;;4843501;29;20192;-88
2022/02/07 05:15:57;;;;;;;84.60;41.67;;;3.80;99.90;;;;;;4807404;29;20195;-88
2022/02/07 05:19:22;;;;;;;;;;;;;;;;;;;;;
2022/02/07 05:21:54;;;;;;;83.75;45.55;;;3.70;99.90;;;;;;4799065;29;20268;-88
2022/02/07 05:24:32;;;;;;;84.18;49.88;;;3.70;99.90;;;;;;4821414;29;20622;-89
2022/02/07 05:27:44;;;;;;;99.15;75.72;;;3.70;99.90;;;;;;4845433;29;20181;-88
2022/02/07 05:34:18;;;;;;;83.72;47.28;;;3.80;99.90;;;;;;4824741;29;20241;-88
2022/02/07 05:36:55;;;;;;;90.55;64.25;;;3.80;99.90;;;;;;4806536;29;20257;-88
2022/02/07 05:50:33;;;;;;;86.00;50.28;;;3.90;99.90;;;;;;4843677;29;20200;-88
2022/02/07 05:57:36;;;;;;;;;;;;;;;;;;;;;
2022/02/07 06:07:29;;;;;;;88.38;47.60;;;4.10;99.90;;;;;;4770505;29;20201;-88
2022/02/07 06:10:34;;;;;;;;;;;;;;;;;;;;;
2022/02/07 06:17:42;;;;;;;90.13;48.83;;;4.10;99.90;;;;;;4786250;29;20235;-88
2022/02/07 06:33:37;;;;;;;91.75;51.72;;;4.20;99.90;;;;;;4900066;29;20245;-88
2022/02/07 06:36:31;;;;;;;97.50;59.65;;;4.20;99.90;;;;;;4873316;29;20289;-87
2022/02/07 06:39:06;;;;;;;315.10;292.63;;;4.20;99.90;;;;;;4824183;29;20185;-87
2022/02/07 06:41:35;;;;;;;97.75;77.03;;;4.20;99.90;;;;;;4853486;29;20722;-87
2022/02/07 06:44:33;;;;;;;93.50;66.50;;;4.30;99.90;;;;;;4911412;29;20648;-87
2022/02/07 06:46:59;;;;;;;84.10;49.38;;;4.30;99.90;;;;;;4919044;29;20169;-87
2022/02/07 06:49:25;;;;;;;90.50;50.40;;;4.30;99.90;;;;;;4920146;29;20168;-87
2022/02/07 06:51:50;;;;;;;94.50;79.83;;;4.30;99.90;;;;;;4920930;29;20166;-87
2022/02/07 06:54:31;;;;;;;88.87;59.43;;;4.30;99.90;;;;;;4919394;29;20160;-87
2022/02/07 06:57:02;;;;;;;91.07;56.85;;;4.30;99.90;;;;;;4917694;29;20168;-87
2022/02/07 06:59:40;;;;;;;119.90;104.63;;;4.30;99.90;;;;;;4918305;29;20182;-87
2022/02/07 07:02:11;;;;;;;108.25;92.10;;;4.30;99.90;;;;;;4919844;29;20156;-87
2022/02/07 07:04:40;;;;;;;120.43;107.47;;;4.30;99.90;;;;;;4917732;29;20212;-87
2022/02/07 07:07:14;;;;;;;211.20;195.02;;;4.30;99.90;;;;;;4917951;29;20204;-87
2022/02/07 07:09:45;;;;;;;94.38;75.28;;;4.30;99.90;;;;;;4919249;29;20154;-87
2022/02/07 07:12:11;;;;;;;86.50;59.40;;;4.40;99.90;;;;;;4916512;29;20192;-88
2022/02/07 07:15:13;;;;;;;125.45;110.47;;;4.40;99.90;;;;;;4916766;29;20196;-88
2022/02/07 07:17:29;;;;;;;92.47;61.42;;;4.40;99.90;;;;;;4915575;29;20185;-87
2022/02/07 07:19:55;;;;;;;101.50;54.22;;;4.40;99.90;;;;;;4915997;29;20205;-87
2022/02/07 07:22:21;;;;;;;119.97;95.67;;;4.50;99.90;;;;;;4920122;29;20181;-87
2022/02/07 07:24:46;;;;;;;94.20;76.87;;;4.50;99.90;;;;;;4918391;29;20797;-87
2022/02/07 07:27:14;;;;;;;102.83;69.97;;;4.40;99.90;;;;;;4918635;29;20193;-87
2022/02/07 07:29:45;;;;;;;92.45;64.85;;;4.50;99.90;;;;;;4921268;29;20169;-86
2022/02/07 07:32:11;;;;;;;94.47;68.72;;;4.50;99.90;;;;;;4919670;29;20161;-87
2022/02/07 07:34:37;;;;;;;102.60;82.40;;;4.50;99.90;;;;;;4918353;29;20533;-87
2022/02/07 07:37:03;;;;;;;88.83;57.47;;;4.50;99.90;;;;;;4917576;29;20173;-87
2022/02/07 07:39:28;;;;;;;100.87;67.53;;;4.50;99.90;;;;;;4917303;29;20653;-87
2022/02/07 07:41:55;;;;;;;103.33;76.63;;;4.50;99.90;;;;;;4917994;29;20505;-87
2022/02/07 07:44:26;;;;;;;139.18;126.53;;;4.50;99.90;;;;;;4918148;29;20705;-87
2022/02/07 07:46:56;;;;;;;96.60;55.15;;;4.50;99.90;;;;;;4918230;29;20179;-87
2022/02/07 07:49:31;;;;;;;90.57;62.58;;;4.60;99.90;;;;;;4919347;29;20236;-87
2022/02/07 07:52:04;;;;;;;92.95;62.88;;;4.60;99.90;;;;;;4918921;29;20145;-87
2022/02/07 08:07:51;;;;;;;93.30;58.28;;;4.60;99.90;;;;;;4917585;23;20234;-86
2022/02/07 08:14:12;;;;;;;;;;;;;;;;;;;;;
2022/02/07 08:16:55;;;;;;;87.97;52.55;;;4.70;99.90;;;;;;4809491;29;20869;-86
2022/02/07 08:23:15;;;;;;;87.30;53.85;;;4.80;99.90;;;;;;4858854;29;20214;-85
2022/02/07 08:26:13;;;;;;;214.32;197.40;;;4.90;99.90;;;;;;4860125;29;20203;-86
2022/02/07 08:28:51;;;;;;;96.95;60.45;;;4.90;99.90;;;;;;4865751;29;20179;-86
2022/02/07 08:31:25;;;;;;;191.23;175.80;;;5.00;99.90;;;;;;4867774;29;20154;-86
2022/02/07 08:34:06;;;;;;;90.28;51.58;;;5.00;99.90;;;;;;4868521;29;20259;-86
2022/02/07 08:37:09;;;;;;;87.20;46.00;;;5.10;99.90;;;;;;4868695;29;20206;-85
2022/02/07 08:39:43;;;;;;;85.45;32.45;;;5.10;99.90;;;;;;4869222;29;20187;-85
2022/02/07 08:42:31;;;;;;;90.03;37.67;;;5.10;99.90;;;;;;4870276;29;20199;-86
2022/02/07 08:45:42;;;;;;;87.15;34.40;;;5.10;99.90;;;;;;4867797;29;20579;-85
2022/02/07 08:48:23;;;;;;;87.53;43.08;;;5.10;99.90;;;;;;4842376;29;20206;-86
2022/02/07 08:51:42;;;;;;;78.97;34.90;;;5.10;99.90;;;;;;4866773;29;20183;-86
2022/02/07 08:54:45;;;;;;;100.35;76.03;;;5.10;99.90;;;;;;4836427;29;20266;-86
2022/02/07 08:57:42;;;;;;;;;;;;;;;;;;;;;
2022/02/07 09:00:24;;;;;;;91.53;36.88;;;5.10;99.90;;;;;;4870036;29;20560;-85
2022/02/07 09:12:01;;;;;;;83.05;26.08;;;5.40;99.90;;;;;;4868770;29;20170;-85
2022/02/07 09:15:28;;;;;;;160.52;146.18;;;5.40;99.90;;;;;;4847926;29;20187;-85
2022/02/07 09:17:54;;;;;;;81.38;23.90;;;5.40;99.90;;;;;;4847567;29;20168;-85
2022/02/07 09:20:41;;;;;;;78.53;26.38;;;5.50;99.90;;;;;;4866199;29;20196;-85
2022/02/07 09:23:23;;;;;;;79.35;30.35;;;5.50;99.90;;;;;;4866975;29;20620;-85
2022/02/07 09:26:23;;;;;;;81.78;29.98;;;5.50;99.90;;;;;;4868473;29;20640;-85
2022/02/07 09:29:02;;;;;;;84.63;40.30;;;5.60;99.90;;;;;;4867296;29;20172;-85
2022/02/07 09:34:50;;;;;;;93.45;30.88;;;5.80;99.90;;;;;;4865126;29;20199;-85
2022/02/07 09:37:39;;;;;;;81.70;24.02;;;5.80;99.90;;;;;;4868215;29;20584;-83
2022/02/07 09:40:12;;;;;;;90.65;36.58;;;5.90;99.90;;;;;;4864777;29;20205;-85
2022/02/07 09:43:12;;;;;;;78.90;26.45;;;6.00;99.90;;;;;;4866735;29;20183;-85
2022/02/07 09:45:45;;;;;;;80.22;24.92;;;6.10;99.90;;;;;;4867834;29;20194;-86
2022/02/07 09:49:11;;;;;;;;;;;;;;;;;;;;;
2022/02/07 09:51:53;;;;;;;78.07;27.50;;;6.00;99.90;;;;;;4866681;29;20273;-86
2022/02/07 09:55:09;;;;;;;81.63;30.17;;;6.00;99.90;;;;;;4865866;29;20250;-83
2022/02/07 09:57:35;;;;;;;91.40;43.20;;;6.10;99.90;;;;;;4862017;29;20194;-85
2022/02/07 10:00:33;;;;;;;82.72;29.65;;;6.00;99.90;;;;;;4865884;29;20172;-86
2022/02/07 10:03:21;;;;;;;84.38;36.50;;;6.10;99.90;;;;;;4866814;29;20266;-86
2022/02/07 10:06:10;;;;;;;81.57;36.75;;;6.20;99.90;;;;;;4866860;29;20541;-85
2022/02/07 10:41:06;;;;;;;74.57;21.23;;;6.80;99.90;;;;;;4847104;29;20647;-86
2022/02/07 10:44:04;;;;;;;80.45;17.02;;;6.80;99.90;;;;;;4866501;29;20215;-87
2022/02/07 10:46:54;;;;;;;92.55;41.00;;;6.90;99.90;;;;;;4864518;29;20202;-86
2022/02/07 10:49:20;;;;;;;80.07;15.98;;;7.00;99.90;;;;;;4869229;29;20200;-86
2022/02/07 10:51:50;;;;;;;82.07;18.07;;;7.20;99.90;;;;;;4867879;29;20179;-85
2022/02/07 10:54:16;;;;;;;74.75;15.40;;;7.30;99.90;;;;;;4866295;29;20452;-86
2022/02/07 10:57:06;;;;;;;84.07;27.60;;;7.50;99.90;;;;;;4867064;29;20248;-86
2022/02/07 10:59:38;;;;;;;75.30;16.83;;;7.60;99.90;;;;;;4867160;29;20262;-86
2022/02/07 11:05:15;;;;;;;77.82;10.32;;;7.80;99.90;;;;;;4867839;29;20221;-85
2022/02/07 11:07:52;;;;;;;88.57;24.80;;;7.70;99.90;;;;;;4867798;29;20147;-86
2022/02/07 11:11:04;;;;;;;77.10;12.85;;;7.50;99.90;;;;;;4867157;29;20162;-86
2022/02/07 11:13:48;;;;;;;74.18;8.88;;;7.30;99.90;;;;;;4867060;29;20639;-86
2022/02/07 11:21:26;;;;;;;73.35;10.70;;;7.00;99.90;;;;;;4867049;29;20182;-85
2022/02/07 11:24:52;;;;;;;73.50;11.30;;;7.00;99.90;;;;;;4866532;29;20206;-86
2022/02/07 11:27:35;;;;;;;76.72;13.88;;;7.00;99.90;;;;;;4854965;29;20669;-86
2022/02/07 11:30:12;;;;;;;81.82;19.25;;;7.00;99.90;;;;;;4867230;29;20148;-85
2022/02/07 11:32:45;;;;;;;82.78;30.63;;;7.10;99.90;;;;;;4865867;29;20523;-86
2022/02/07 11:35:23;;;;;;;82.25;20.52;;;7.20;99.90;;;;;;4866467;29;20282;-85
2022/02/07 11:37:56;;;;;;;76.43;14.55;;;7.30;99.90;;;;;;4867055;29;20183;-85
2022/02/07 11:40:30;;;;;;;77.05;10.43;;;7.50;99.90;;;;;;4867422;29;20175;-85
2022/02/07 11:43:38;;;;;;;82.07;10.23;;;7.50;99.90;;;;;;4867184;29;20686;-86
2022/02/07 11:46:13;;;;;;;73.07;9.93;;;7.60;99.90;;;;;;4867689;29;20199;-86
2022/02/07 11:48:46;;;;;;;72.10;9.50;;;7.90;99.90;;;;;;4865923;29;20202;-86
2022/02/07 11:51:19;;;;;;;82.00;25.25;;;8.00;99.90;;;;;;4865270;29;20180;-85
2022/02/07 11:53:50;;;;;;;86.35;37.65;;;8.00;99.90;;;;;;4867288;29;20170;-84
2022/02/07 11:56:52;;;;;;;97.97;63.05;;;8.00;99.90;;;;;;4865160;29;20199;-85
2022/02/07 12:01:57;;;;;;;74.28;16.75;;;8.00;99.90;;;;;;4867269;29;20175;-86
2022/02/07 12:04:37;;;;;;;82.00;19.83;;;7.90;99.90;;;;;;4867869;29;20667;-85
2022/02/07 12:07:10;;;;;;;82.75;32.28;;;7.90;99.90;;;;;;4872873;29;20162;-86
2022/02/07 12:09:36;;;;;;;81.53;23.10;;;8.10;99.90;;;;;;4871655;29;20193;-85
2022/02/07 12:12:03;;;;;;;76.40;15.27;;;8.10;99.90;;;;;;4872623;29;20159;-85
2022/02/07 12:14:36;;;;;;;78.18;13.20;;;8.10;99.90;;;;;;4872379;29;20182;-86
2022/02/07 12:17:02;;;;;;;76.80;12.95;;;8.10;99.90;;;;;;4871329;29;20171;-86
2022/02/07 12:19:39;;;;;;;73.13;15.27;;;8.00;99.90;;;;;;4871041;29;20175;-86
2022/02/07 12:22:15;;;;;;;75.40;12.80;;;7.90;99.90;;;;;;4871032;29;20167;-86
2022/02/07 12:24:56;;;;;;;73.65;10.60;;;7.80;99.90;;;;;;4872688;29;20289;-86
2022/02/07 12:27:26;;;;;;;81.03;17.13;;;7.70;99.90;;;;;;4871214;29;20250;-85
2022/02/07 12:32:55;;;;;;;81.03;26.92;;;7.60;99.90;;;;;;4860726;29;20191;-86
2022/02/07 12:35:25;;;;;;;83.63;36.28;;;7.60;99.90;;;;;;4870489;29;20199;-86
2022/02/07 12:37:52;;;;;;;84.65;30.95;;;7.60;99.90;;;;;;4872051;29;20167;-86
2022/02/07 12:40:20;;;;;;;79.25;28.83;;;7.70;99.90;;;;;;4871812;29;20706;-85
2022/02/07 12:42:47;;;;;;;85.40;32.15;;;7.90;99.90;;;;;;4871601;29;20844;-85
2022/02/07 12:45:13;;;;;;;91.95;19.90;;;7.90;99.90;;;;;;4870469;29;20552;-86
2022/02/07 12:47:39;;;;;;;72.60;15.40;;;8.00;99.90;;;;;;4872730;29;20255;-86
2022/02/07 12:50:14;;;;;;;81.40;12.60;;;7.90;99.90;;;;;;4872711;29;20167;-85
2022/02/07 12:52:41;;;;;;;74.93;13.63;;;7.80;99.90;;;;;;4870929;29;20174;-85
2022/02/07 12:55:08;;;;;;;77.63;13.73;;;7.70;99.90;;;;;;4872445;29;20247;-85
2022/02/07 12:57:47;;;;;;;73.38;13.13;;;7.70;99.90;;;;;;4870956;29;20179;-86
2022/02/07 13:00:16;;;;;;;80.93;11.68;;;7.80;99.90;;;;;;4873086;29;20163;-86
2022/02/07 13:02:44;;;;;;;70.97;11.75;;;7.80;99.90;;;;;;4872585;29;20540;-86
2022/02/07 13:05:14;;;;;;;76.47;9.55;;;7.70;99.90;;;;;;4871050;29;20195;-85
2022/02/07 13:07:47;;;;;;;76.80;9.52;;;7.70;99.90;;;;;;4871408;29;20170;-85
2022/02/07 13:10:18;;;;;;;73.28;9.75;;;7.70;99.90;;;;;;4871475;29;20523;-85
2022/02/07 13:15:23;;;;;;;69.60;9.10;;;7.60;99.90;;;;;;4872109;29;20189;-85
2022/02/07 13:17:59;;;;;;;78.75;12.68;;;7.60;99.90;;;;;;4882392;29;20188;-86
2022/02/07 13:20:28;;;;;;;72.63;10.80;;;7.50;99.90;;;;;;4867839;29;20632;-86
2022/02/07 13:23:11;;;;;;;81.88;10.50;;;7.50;99.90;;;;;;4868069;29;20286;-86
2022/02/07 13:25:40;;;;;;;70.00;7.93;;;7.50;99.90;;;;;;4870260;29;20199;-86
2022/02/07 13:28:29;;;;;;;79.68;11.70;;;7.50;99.90;;;;;;4868668;29;20175;-86
2022/02/07 13:30:57;;;;;;;81.15;11.55;;;7.50;99.90;;;;;;4867685;29;20674;-85
2022/02/07 13:33:26;;;;;;;72.22;8.77;;;7.50;99.90;;;;;;4868286;29;20220;-85
2022/02/07 13:35:56;;;;;;;75.07;7.45;;;7.50;98.50;;;;;;4866801;29;20199;-85
2022/02/07 13:38:23;;;;;;;70.60;6.38;;;7.50;96.60;;;;;;4867527;29;20234;-85
2022/02/07 13:40:51;;;;;;;72.82;6.85;;;7.50;98.60;;;;;;4867225;29;20270;-85
2022/02/07 13:43:22;;;;;;;73.18;7.40;;;7.60;99.90;;;;;;4866313;29;20191;-84
2022/02/07 13:46:02;;;;;;;71.90;8.55;;;7.60;99.30;;;;;;4868544;29;20752;-86
2022/02/07 13:48:32;;;;;;;84.30;8.02;;;7.60;99.00;;;;;;4867330;29;20166;-85
2022/02/07 13:51:03;;;;;;;70.07;7.15;;;7.60;99.00;;;;;;4866613;29;20183;-86
2022/02/07 13:53:29;;;;;;;70.75;6.68;;;7.60;99.40;;;;;;4868584;29;20155;-86
2022/02/07 13:55:59;;;;;;;71.80;6.83;;;7.60;98.60;;;;;;4867353;29;20202;-85
2022/02/07 13:58:34;;;;;;;70.00;6.65;;;7.70;98.80;;;;;;4867076;29;20416;-85
2022/02/07 14:01:23;;;;;;;73.28;6.95;;;7.70;99.60;;;;;;4868051;29;20162;-85
2022/02/07 14:03:52;;;;;;;72.35;7.15;;;7.80;99.90;;;;;;4866116;29;20199;-86
2022/02/07 14:06:20;;;;;;;72.05;7.30;;;7.90;99.60;;;;;;4866220;29;20207;-85
2022/02/07 14:08:57;;;;;;;77.32;8.00;;;8.00;99.00;;;;;;4866052;29;20191;-86
2022/02/07 14:11:29;;;;;;;77.30;9.73;;;8.00;99.30;;;;;;4866937;29;20509;-86
2022/02/07 14:14:01;;;;;;;80.22;27.52;;;8.00;93.80;;;;;;4866439;29;20179;-86
2022/02/07 14:16:27;;;;;;;77.65;9.95;;;8.00;92.80;;;;;;4866093;29;20235;-86
2022/02/07 14:18:54;;;;;;;74.65;6.95;;;8.00;92.60;;;;;;4865504;29;20180;-86
2022/02/07 14:21:24;;;;;;;77.22;7.22;;;8.10;90.00;;;;;;4867238;29;20181;-86
2022/02/07 14:23:52;;;;;;;69.55;6.57;;;8.10;90.40;;;;;;4867095;29;20760;-86
2022/02/07 14:26:21;;;;;;;72.45;6.63;;;8.20;90.80;;;;;;4867238;29;20188;-85
2022/02/07 14:28:51;;;;;;;74.82;16.30;;;8.30;88.90;;;;;;4866459;29;20223;-85
2022/02/07 14:31:17;;;;;;;72.45;13.27;;;8.30;85.60;;;;;;4866862;29;20262;-86
2022/02/07 14:33:43;;;;;;;77.93;16.58;;;8.30;83.20;;;;;;4866963;29;20177;-85
2022/02/07 14:36:10;;;;;;;73.73;18.33;;;8.20;86.70;;;;;;4867048;29;20251;-85
2022/02/07 14:38:36;;;;;;;75.03;16.00;;;8.10;78.30;;;;;;4867046;29;20442;-83
2022/02/07 14:41:05;;;;;;;73.72;18.35;;;8.00;80.60;;;;;;4867244;29;20231;-86
2022/02/07 14:43:32;;;;;;;74.65;16.40;;;8.10;79.80;;;;;;4865459;29;20588;-85
2022/02/07 14:48:33;;;;;;;83.32;21.42;;;8.10;82.00;;;;;;4867262;29;20201;-86
2022/02/07 14:51:06;;;;;;;74.00;15.70;;;8.00;78.30;;;;;;4865845;29;20172;-85
2022/02/07 14:53:36;;;;;;;74.10;14.52;;;8.00;77.30;;;;;;4867065;29;20158;-86
2022/02/07 14:56:07;;;;;;;73.07;14.32;;;8.00;81.00;;;;;;4865900;29;20237;-85
2022/02/07 14:58:37;;;;;;;75.97;16.20;;;7.90;83.10;;;;;;4866873;29;20166;-85
2022/02/07 15:01:04;;;;;;;72.65;12.38;;;7.90;76.80;;;;;;4866053;29;20175;-86
2022/02/07 15:03:29;;;;;;;74.07;13.10;;;7.90;76.20;;;;;;4866731;29;20191;-85
2022/02/07 15:05:59;;;;;;;72.13;12.67;;;7.90;75.70;;;;;;4866421;29;20191;-85
2022/02/07 15:08:32;;;;;;;74.18;13.00;;;8.00;80.90;;;;;;4866443;29;20430;-85
2022/02/07 15:10:59;;;;;;;75.55;12.50;;;8.00;78.60;;;;;;4865347;29;20159;-85
2022/02/07 15:13:33;;;;;;;74.55;10.00;;;8.00;75.20;;;;;;4864522;29;20179;-85
2022/02/07 15:16:01;;;;;;;68.25;7.20;;;8.00;74.40;;;;;;4866233;29;20580;-85
2022/02/07 15:18:28;;;;;;;70.55;7.05;;;8.00;67.70;;;;;;4865808;29;20205;-85
2022/02/07 15:20:55;;;;;;;72.43;6.88;;;8.00;69.10;;;;;;4865561;29;20644;-85
2022/02/07 15:23:20;;;;;;;74.18;8.40;;;8.00;68.50;;;;;;4864499;29;20199;-85
2022/02/07 15:26:22;;;;;;;68.87;8.70;;;7.90;64.90;;;;;;4927969;23;20290;-85
2022/02/07 15:29:14;;;;;;;71.80;6.82;;;7.90;63.80;;;;;;4883432;29;20450;-86
2022/02/07 15:32:09;;;;;;;70.70;6.40;;;7.90;65.00;;;;;;4884812;29;20657;-85
2022/02/07 15:34:29;;;;;;;71.43;8.82;;;7.90;68.00;;;;;;4884538;29;20181;-85
2022/02/07 15:37:06;;;;;;;69.20;7.90;;;7.90;71.20;;;;;;4884333;29;20175;-85
2022/02/07 15:39:32;;;;;;;71.80;7.35;;;7.90;69.60;;;;;;4884025;29;20151;-85
2022/02/07 15:41:58;;;;;;;73.50;7.53;;;7.80;68.80;;;;;;4884776;29;20643;-86
2022/02/07 15:44:29;;;;;;;75.50;7.10;;;7.80;69.80;;;;;;4884633;29;20190;-85
2022/02/07 15:47:27;;;;;;;71.15;9.68;;;7.80;75.10;;;;;;4884155;29;20174;-85
2022/02/07 15:50:08;;;;;;;68.85;9.38;;;7.80;76.40;;;;;;4845545;29;20708;-85
2022/02/07 15:52:51;;;;;;;80.07;12.02;;;7.80;74.50;;;;;;4882861;29;20722;-85
2022/02/07 15:55:32;;;;;;;71.68;11.60;;;7.60;75.90;;;;;;4884821;29;20197;-85
2022/02/07 15:58:03;;;;;;;70.18;11.68;;;7.60;78.10;;;;;;4884042;29;20166;-85
2022/02/07 16:00:37;;;;;;;75.78;12.48;;;7.60;79.90;;;;;;4883099;29;20199;-85
2022/02/07 16:03:20;;;;;;;72.65;10.73;;;7.70;79.60;;;;;;4884588;29;20194;-85
2022/02/07 16:05:48;;;;;;;71.45;11.85;;;7.60;77.70;;;;;;4882898;29;20622;-85
2022/02/07 16:08:23;;;;;;;73.45;11.38;;;7.60;80.80;;;;;;4884645;29;20190;-85
2022/02/07 16:10:49;;;;;;;76.57;13.45;;;7.50;82.10;;;;;;4885194;29;20572;-85
2022/02/07 16:15:45;;;;;;;69.50;11.33;;;7.50;83.30;;;;;;4884699;29;20187;-85
2022/02/07 16:18:16;;;;;;;75.75;12.98;;;7.40;82.40;;;;;;4883730;29;20178;-85
2022/02/07 16:20:43;;;;;;;77.00;15.60;;;7.30;82.30;;;;;;4884123;29;20186;-86
2022/02/07 16:23:31;;;;;;;71.88;12.52;;;7.30;82.30;;;;;;4884923;29;20196;-85
2022/02/07 16:26:12;;;;;;;75.55;13.18;;;7.20;87.00;;;;;;4884480;29;20619;-85
2022/02/07 16:28:38;;;;;;;70.97;14.30;;;7.20;88.00;;;;;;4884580;29;20211;-85
2022/02/07 16:31:16;;;;;;;72.45;13.95;;;7.20;89.60;;;;;;4884184;29;20170;-85
2022/02/07 16:33:41;;;;;;;72.10;15.45;;;7.20;90.20;;;;;;4884929;29;20163;-85
2022/02/07 16:36:10;;;;;;;73.77;14.70;;;7.10;91.70;;;;;;4883697;29;20728;-85
2022/02/07 16:38:36;;;;;;;81.35;13.00;;;7.00;92.80;;;;;;4883533;29;20419;-85
2022/02/07 16:41:25;;;;;;;70.73;11.10;;;6.90;93.30;;;;;;4884826;29;20198;-85
2022/02/07 16:43:58;;;;;;;72.78;8.13;;;6.90;94.50;;;;;;4883629;29;21047;-85
2022/02/07 16:46:31;;;;;;;69.55;7.43;;;6.80;94.30;;;;;;4883252;29;20201;-85
2022/02/07 16:49:03;;;;;;;76.55;9.48;;;6.80;93.80;;;;;;4882827;29;20178;-85
2022/02/07 16:51:48;;;;;;;71.05;7.15;;;6.70;94.90;;;;;;4885768;29;20230;-85
2022/02/07 16:54:22;;;;;;;70.10;7.25;;;6.70;94.10;;;;;;4887216;29;20246;-85
2022/02/07 16:56:58;;;;;;;73.05;6.72;;;6.70;94.00;;;;;;4888142;29;20158;-85
2022/02/07 16:59:28;;;;;;;71.32;7.00;;;6.60;93.30;;;;;;4887704;29;20177;-85
2022/02/07 17:02:03;;;;;;;71.03;6.60;;;6.60;95.20;;;;;;4888758;29;20174;-85
2022/02/07 17:04:35;;;;;;;70.65;5.65;;;6.60;95.70;;;;;;4888016;29;20182;-85
2022/02/07 17:07:06;;;;;;;69.45;6.38;;;6.60;95.40;;;;;;4886506;29;20225;-85
2022/02/07 17:09:44;;;;;;;70.53;6.10;;;6.60;95.50;;;;;;4885813;29;20170;-85
2022/02/07 17:12:16;;;;;;;72.88;7.03;;;6.60;96.20;;;;;;4887423;29;20181;-85
2022/02/07 17:14:51;;;;;;;74.03;6.55;;;6.60;95.30;;;;;;4887789;29;20190;-85
2022/02/07 17:17:25;;;;;;;73.15;6.53;;;6.60;95.60;;;;;;4889078;29;20155;-85
2022/02/07 17:20:27;;;;;;;69.85;5.45;;;6.50;94.50;;;;;;4887738;29;20182;-85
2022/02/07 17:23:28;;;;;;;71.90;8.40;;;6.40;95.20;;;;;;4887980;29;20257;-85
2022/02/07 17:25:56;;;;;;;68.85;6.07;;;6.40;94.80;;;;;;4885974;29;20198;-85
2022/02/07 17:28:22;;;;;;;71.97;6.72;;;6.40;96.10;;;;;;4885435;29;20189;-85
2022/02/07 17:33:55;;;;;;;69.70;9.43;;;6.40;96.10;;;;;;4885204;29;20583;-84
2022/02/07 17:36:21;;;;;;;70.47;11.25;;;6.30;98.20;;;;;;4886670;29;20198;-84
2022/02/07 17:38:47;;;;;;;76.73;11.37;;;6.30;98.30;;;;;;4886015;29;20175;-84
2022/02/07 17:41:15;;;;;;;77.53;13.80;;;6.30;97.60;;;;;;4887302;29;20419;-84
2022/02/07 17:43:51;;;;;;;72.13;11.90;;;6.30;98.60;;;;;;4885287;29;20230;-84
2022/02/07 17:46:21;;;;;;;73.95;10.35;;;6.30;99.00;;;;;;4888350;29;20250;-85
2022/02/07 17:49:06;;;;;;;78.22;23.38;;;6.40;98.40;;;;;;4887608;29;20189;-85
2022/02/07 17:52:09;;;;;;;72.25;12.52;;;6.40;98.00;;;;;;4886178;29;20182;-85
2022/02/07 17:54:35;;;;;;;72.05;9.73;;;6.40;98.50;;;;;;4876169;29;20246;-85
2022/02/07 17:57:02;;;;;;;80.33;11.47;;;6.40;96.80;;;;;;4886223;29;20182;-85
2022/02/07 17:59:31;;;;;;;81.03;12.65;;;6.40;97.10;;;;;;4888162;29;20182;-85
2022/02/07 18:01:57;;;;;;;76.40;10.65;;;6.40;98.40;;;;;;4887164;29;20162;-85
2022/02/07 18:04:29;;;;;;;78.70;14.90;;;6.40;97.90;;;;;;4886937;29;20507;-85
2022/02/07 18:07:01;;;;;;;76.38;13.50;;;6.40;98.30;;;;;;4887440;29;20161;-85
2022/02/07 18:09:44;;;;;;;75.28;13.63;;;6.40;98.60;;;;;;4885670;29;20166;-85
2022/02/07 18:12:16;;;;;;;71.25;11.27;;;6.40;98.50;;;;;;4887406;29;20241;-85
2022/02/07 18:14:41;;;;;;;71.30;11.10;;;6.50;99.90;;;;;;4885557;29;20202;-84
2022/02/07 18:17:15;;;;;;;73.70;10.63;;;6.40;99.70;;;;;;4888889;29;20211;-85
2022/02/07 18:22:52;;;;;;;76.25;10.25;;;6.30;99.90;;;;;;4889050;29;20181;-85
2022/02/07 18:25:20;;;;;;;70.68;11.13;;;6.40;99.90;;;;;;4888543;29;20230;-84
2022/02/07 18:27:50;;;;;;;72.28;10.93;;;6.40;99.90;;;;;;4888941;29;20179;-85
2022/02/07 18:30:18;;;;;;;70.85;10.02;;;6.40;99.90;;;;;;4888808;29;20198;-84
2022/02/07 18:32:45;;;;;;;76.07;10.65;;;6.40;99.90;;;;;;4888000;29;20171;-85